VLG81HH LEBL-LEZL
Flight info
| Callsign | VLG81HH |
|---|---|
| Flight time | N/A |
| Altitude | 33000 |
| Route | LOTOS DCT TORDU DCT DIKUT DCT SOPET DCT VLC DCT SERRA DCT ASTRO DCT POBOS DCT XEBAR DCT YES DCT BLN |
| Aircraft | A320/M-SDE3FGHIRWY/LB1 |
Departure
| Time | N/A |
|---|---|
| Airport | Josep Tarradellas Barcelona-El Prat Airport (LEBL) |
Arrival
| Time | 2026-04-29 21:14 |
|---|---|
| Airport | Seville Airport (LEZL) |
| Time | Latitude | Longitude | Altitude | Speed | Heading |
|---|---|---|---|---|---|
| 2026-04-29 19:53 | 40.31244 | 0.66533 | 32999 ft | 408 kts | 230° |
| 2026-04-29 19:53 | 40.27394 | 0.61087 | 33007 ft | 407 kts | 230° |
| 2026-04-29 19:54 | 40.21616 | 0.52948 | 33008 ft | 406 kts | 230° |
| 2026-04-29 19:54 | 40.17770 | 0.47534 | 33008 ft | 406 kts | 230° |
| 2026-04-29 19:55 | 40.16498 | 0.45743 | 33011 ft | 406 kts | 230° |
| 2026-04-29 19:55 | 40.10300 | 0.37049 | 33006 ft | 405 kts | 229° |
| 2026-04-29 19:56 | 40.03688 | 0.27809 | 33010 ft | 403 kts | 229° |
| 2026-04-29 19:57 | 39.99220 | 0.21563 | 33009 ft | 403 kts | 229° |
| 2026-04-29 19:57 | 39.94778 | 0.15364 | 33010 ft | 402 kts | 229° |
| 2026-04-29 19:58 | 39.90955 | 0.10041 | 33008 ft | 402 kts | 229° |
| 2026-04-29 19:58 | 39.87138 | 0.04731 | 32995 ft | 402 kts | 229° |
| 2026-04-29 19:59 | 39.83318 | -0.00564 | 33005 ft | 401 kts | 229° |
| 2026-04-29 19:59 | 39.79492 | -0.05847 | 32996 ft | 401 kts | 229° |
| 2026-04-29 20:00 | 39.75669 | -0.11123 | 32995 ft | 401 kts | 229° |
| 2026-04-29 20:00 | 39.71843 | -0.16400 | 32986 ft | 401 kts | 229° |
| 2026-04-29 20:01 | 39.68086 | -0.21563 | 32985 ft | 401 kts | 229° |
| 2026-04-29 20:01 | 39.64259 | -0.26829 | 33000 ft | 401 kts | 229° |
| 2026-04-29 20:02 | 39.60430 | -0.32093 | 32997 ft | 401 kts | 229° |
| 2026-04-29 20:02 | 39.57240 | -0.36466 | 33001 ft | 401 kts | 228° |
| 2026-04-29 20:03 | 39.52746 | -0.42599 | 32992 ft | 402 kts | 228° |
| 2026-04-29 20:03 | 39.48900 | -0.47844 | 32998 ft | 401 kts | 230° |
| 2026-04-29 20:04 | 39.45511 | -0.53497 | 33003 ft | 400 kts | 234° |
| 2026-04-29 20:04 | 39.42156 | -0.59244 | 33005 ft | 400 kts | 234° |
| 2026-04-29 20:05 | 39.38798 | -0.64974 | 33006 ft | 400 kts | 234° |
| 2026-04-29 20:05 | 39.35432 | -0.70690 | 33008 ft | 400 kts | 234° |
| 2026-04-29 20:06 | 39.32065 | -0.76394 | 33011 ft | 399 kts | 234° |
| 2026-04-29 20:06 | 39.28705 | -0.82108 | 33019 ft | 399 kts | 234° |
| 2026-04-29 20:07 | 39.25344 | -0.87806 | 33016 ft | 399 kts | 233° |
| 2026-04-29 20:07 | 39.22003 | -0.93450 | 33018 ft | 399 kts | 233° |
| 2026-04-29 20:08 | 39.19182 | -0.98211 | 33018 ft | 399 kts | 233° |
| 2026-04-29 20:08 | 39.15267 | -1.04803 | 33013 ft | 399 kts | 233° |
| 2026-04-29 20:09 | 39.11894 | -1.10464 | 33015 ft | 398 kts | 233° |
| 2026-04-29 20:09 | 39.08515 | -1.16127 | 33010 ft | 399 kts | 233° |
| 2026-04-29 20:10 | 39.05135 | -1.21783 | 33010 ft | 399 kts | 233° |
| 2026-04-29 20:10 | 39.01774 | -1.27398 | 33004 ft | 399 kts | 233° |
| 2026-04-29 20:11 | 38.98390 | -1.33044 | 33004 ft | 399 kts | 233° |
| 2026-04-29 20:11 | 38.95006 | -1.38687 | 33000 ft | 399 kts | 233° |
| 2026-04-29 20:12 | 38.91613 | -1.44327 | 33001 ft | 399 kts | 233° |
| 2026-04-29 20:12 | 38.88217 | -1.49959 | 33003 ft | 399 kts | 233° |
| 2026-04-29 20:13 | 38.85391 | -1.54642 | 33002 ft | 399 kts | 233° |
| 2026-04-29 20:13 | 38.81438 | -1.61183 | 33004 ft | 399 kts | 233° |
| 2026-04-29 20:14 | 38.78031 | -1.66817 | 33004 ft | 400 kts | 233° |
| 2026-04-29 20:14 | 38.74617 | -1.72441 | 33000 ft | 400 kts | 233° |
| 2026-04-29 20:15 | 38.71200 | -1.78059 | 33001 ft | 400 kts | 233° |
| 2026-04-29 20:15 | 38.67785 | -1.83678 | 33001 ft | 400 kts | 233° |
| 2026-04-29 20:16 | 38.64360 | -1.89285 | 33006 ft | 400 kts | 233° |
| 2026-04-29 20:16 | 38.60959 | -1.94850 | 33006 ft | 399 kts | 233° |
| 2026-04-29 20:17 | 38.57535 | -2.00434 | 33006 ft | 399 kts | 233° |
| 2026-04-29 20:17 | 38.54112 | -2.06008 | 33013 ft | 398 kts | 233° |
| 2026-04-29 20:18 | 38.50696 | -2.11573 | 33015 ft | 398 kts | 233° |
| 2026-04-29 20:18 | 38.47285 | -2.17124 | 33016 ft | 397 kts | 233° |
| 2026-04-29 20:19 | 38.43874 | -2.22665 | 33021 ft | 397 kts | 233° |
| 2026-04-29 20:19 | 38.40456 | -2.28193 | 33023 ft | 396 kts | 233° |
| 2026-04-29 20:20 | 38.37180 | -2.33762 | 33018 ft | 394 kts | 240° |
| 2026-04-29 20:20 | 38.35279 | -2.40275 | 33020 ft | 394 kts | 257° |
| 2026-04-29 20:21 | 38.34204 | -2.47125 | 33015 ft | 394 kts | 257° |
| 2026-04-29 20:21 | 38.33117 | -2.53963 | 33015 ft | 394 kts | 257° |
| 2026-04-29 20:22 | 38.32020 | -2.60795 | 33010 ft | 394 kts | 257° |
| 2026-04-29 20:22 | 38.30928 | -2.67622 | 33011 ft | 393 kts | 257° |
| 2026-04-29 20:23 | 38.29824 | -2.74437 | 33007 ft | 393 kts | 257° |
| 2026-04-29 20:23 | 38.28715 | -2.81241 | 33004 ft | 392 kts | 257° |
| 2026-04-29 20:24 | 38.27616 | -2.88004 | 33002 ft | 392 kts | 257° |
| 2026-04-29 20:24 | 38.26515 | -2.94799 | 33000 ft | 392 kts | 257° |
| 2026-04-29 20:25 | 38.25409 | -3.01587 | 32999 ft | 391 kts | 257° |
| 2026-04-29 20:25 | 38.24294 | -3.08356 | 32995 ft | 391 kts | 257° |
| 2026-04-29 20:26 | 38.23180 | -3.15130 | 32994 ft | 391 kts | 257° |
| 2026-04-29 20:26 | 38.22066 | -3.21893 | 32995 ft | 391 kts | 256° |
| 2026-04-29 20:27 | 38.21321 | -3.26371 | 32989 ft | 390 kts | 256° |
| 2026-04-29 20:27 | 38.19812 | -3.35394 | 32991 ft | 390 kts | 256° |
| 2026-04-29 20:28 | 38.18680 | -3.42136 | 32984 ft | 390 kts | 256° |
| 2026-04-29 20:28 | 38.17561 | -3.48830 | 32986 ft | 389 kts | 256° |
| 2026-04-29 20:29 | 38.16432 | -3.55558 | 32986 ft | 389 kts | 256° |
| 2026-04-29 20:29 | 38.15293 | -3.62274 | 32988 ft | 389 kts | 256° |
| 2026-04-29 20:30 | 38.13987 | -3.68929 | 32986 ft | 388 kts | 253° |
| 2026-04-29 20:30 | 38.12537 | -3.75531 | 32658 ft | 388 kts | 253° |
| 2026-04-29 20:31 | 38.12054 | -3.77711 | 32489 ft | 388 kts | 253° |
| 2026-04-29 20:31 | 38.11331 | -3.81007 | 32232 ft | 387 kts | 253° |
| 2026-04-29 20:31 | 38.10622 | -3.84297 | 31975 ft | 385 kts | 253° |
| 2026-04-29 20:31 | 38.09925 | -3.87577 | 31724 ft | 384 kts | 254° |
| 2026-04-29 20:32 | 38.09236 | -3.90841 | 31472 ft | 382 kts | 254° |
| 2026-04-29 20:32 | 38.08549 | -3.94100 | 31224 ft | 380 kts | 254° |
| 2026-04-29 20:32 | 38.07864 | -3.97327 | 30974 ft | 379 kts | 253° |
| 2026-04-29 20:32 | 38.07177 | -4.00549 | 30734 ft | 377 kts | 253° |
| 2026-04-29 20:33 | 38.06491 | -4.03756 | 30489 ft | 376 kts | 253° |
| 2026-04-29 20:33 | 38.05806 | -4.06948 | 30252 ft | 374 kts | 253° |
| 2026-04-29 20:33 | 38.05123 | -4.10125 | 30009 ft | 373 kts | 253° |
| 2026-04-29 20:33 | 38.04445 | -4.13272 | 29731 ft | 371 kts | 253° |
| 2026-04-29 20:34 | 38.03765 | -4.16428 | 29452 ft | 369 kts | 253° |
| 2026-04-29 20:34 | 38.03089 | -4.19564 | 29177 ft | 368 kts | 253° |
| 2026-04-29 20:34 | 38.02415 | -4.22686 | 28903 ft | 366 kts | 253° |
| 2026-04-29 20:34 | 38.01753 | -4.25743 | 28625 ft | 362 kts | 253° |
| 2026-04-29 20:35 | 38.01091 | -4.28798 | 28203 ft | 358 kts | 253° |
| 2026-04-29 20:35 | 38.00434 | -4.31831 | 27778 ft | 355 kts | 253° |
| 2026-04-29 20:35 | 37.99785 | -4.34833 | 27350 ft | 352 kts | 253° |
| 2026-04-29 20:35 | 37.99136 | -4.37812 | 26938 ft | 349 kts | 253° |
| 2026-04-29 20:36 | 37.98491 | -4.40764 | 26532 ft | 346 kts | 253° |
| 2026-04-29 20:36 | 37.97851 | -4.43696 | 26131 ft | 344 kts | 253° |
| 2026-04-29 20:36 | 37.97214 | -4.46615 | 25748 ft | 342 kts | 253° |
| 2026-04-29 20:36 | 37.96580 | -4.49511 | 25371 ft | 341 kts | 253° |
| 2026-04-29 20:37 | 37.95948 | -4.52397 | 24989 ft | 339 kts | 253° |
| 2026-04-29 20:37 | 37.95319 | -4.55263 | 24621 ft | 337 kts | 253° |
| 2026-04-29 20:37 | 37.94694 | -4.58109 | 24248 ft | 334 kts | 253° |
| 2026-04-29 20:37 | 37.94072 | -4.60934 | 23863 ft | 333 kts | 253° |
| 2026-04-29 20:38 | 37.93451 | -4.63753 | 23487 ft | 331 kts | 253° |
| 2026-04-29 20:38 | 37.92835 | -4.66551 | 23068 ft | 328 kts | 253° |
| 2026-04-29 20:38 | 37.92234 | -4.69282 | 22692 ft | 325 kts | 253° |
| 2026-04-29 20:38 | 37.91632 | -4.72017 | 22318 ft | 321 kts | 253° |
| 2026-04-29 20:39 | 37.91033 | -4.74725 | 21927 ft | 318 kts | 253° |
| 2026-04-29 20:39 | 37.90438 | -4.77404 | 21565 ft | 315 kts | 253° |
| 2026-04-29 20:39 | 37.89845 | -4.80066 | 21183 ft | 312 kts | 252° |
| 2026-04-29 20:39 | 37.89256 | -4.82702 | 20785 ft | 311 kts | 252° |
| 2026-04-29 20:40 | 37.88670 | -4.85326 | 20395 ft | 309 kts | 252° |
| 2026-04-29 20:40 | 37.88087 | -4.87934 | 20000 ft | 307 kts | 252° |
| 2026-04-29 20:40 | 37.87509 | -4.90531 | 19606 ft | 306 kts | 252° |
| 2026-04-29 20:40 | 37.86933 | -4.93121 | 19210 ft | 305 kts | 252° |
| 2026-04-29 20:41 | 37.86359 | -4.95707 | 18810 ft | 304 kts | 252° |
| 2026-04-29 20:41 | 37.85788 | -4.98279 | 18411 ft | 304 kts | 252° |
| 2026-04-29 20:41 | 37.85213 | -5.00853 | 17967 ft | 304 kts | 252° |
| 2026-04-29 20:41 | 37.84639 | -5.03416 | 17561 ft | 302 kts | 252° |
| 2026-04-29 20:42 | 37.84067 | -5.05960 | 17157 ft | 300 kts | 252° |
| 2026-04-29 20:42 | 37.83499 | -5.08494 | 16767 ft | 299 kts | 252° |
| 2026-04-29 20:42 | 37.82942 | -5.10986 | 16377 ft | 298 kts | 252° |
| 2026-04-29 20:42 | 37.82371 | -5.13534 | 15974 ft | 297 kts | 252° |
| 2026-04-29 20:43 | 37.81813 | -5.16009 | 15583 ft | 297 kts | 252° |
| 2026-04-29 20:43 | 37.81245 | -5.18515 | 15188 ft | 296 kts | 252° |
| 2026-04-29 20:43 | 37.80677 | -5.21018 | 14784 ft | 296 kts | 252° |
| 2026-04-29 20:43 | 37.80111 | -5.23518 | 14389 ft | 296 kts | 252° |
| 2026-04-29 20:44 | 37.79542 | -5.26020 | 13998 ft | 296 kts | 252° |
| 2026-04-29 20:44 | 37.78971 | -5.28528 | 13577 ft | 296 kts | 252° |
| 2026-04-29 20:44 | 37.78401 | -5.31028 | 13155 ft | 296 kts | 252° |
| 2026-04-29 20:44 | 37.77834 | -5.33520 | 12761 ft | 295 kts | 252° |
| 2026-04-29 20:45 | 37.77271 | -5.36009 | 12354 ft | 294 kts | 251° |
| 2026-04-29 20:45 | 37.76466 | -5.38363 | 11939 ft | 292 kts | 238° |
| 2026-04-29 20:45 | 37.75225 | -5.40392 | 11518 ft | 293 kts | 225° |
| 2026-04-29 20:45 | 37.73706 | -5.42118 | 11094 ft | 294 kts | 222° |
| 2026-04-29 20:46 | 37.72170 | -5.43832 | 10651 ft | 295 kts | 222° |
| 2026-04-29 20:46 | 37.70633 | -5.45554 | 10250 ft | 295 kts | 222° |
| 2026-04-29 20:46 | 37.69126 | -5.47249 | 10123 ft | 286 kts | 222° |
| 2026-04-29 20:46 | 37.67663 | -5.48893 | 10000 ft | 276 kts | 222° |
| 2026-04-29 20:47 | 37.66243 | -5.50471 | 9849 ft | 269 kts | 219° |
| 2026-04-29 20:47 | 37.64675 | -5.51683 | 9298 ft | 271 kts | 204° |
| 2026-04-29 20:47 | 37.62886 | -5.52404 | 8667 ft | 270 kts | 199° |
| 2026-04-29 20:47 | 37.61086 | -5.53066 | 8068 ft | 268 kts | 199° |
| 2026-04-29 20:48 | 37.59300 | -5.53725 | 7507 ft | 266 kts | 198° |
| 2026-04-29 20:48 | 37.57533 | -5.54381 | 6965 ft | 263 kts | 198° |
| 2026-04-29 20:48 | 37.55781 | -5.55032 | 6433 ft | 261 kts | 198° |
| 2026-04-29 20:48 | 37.54054 | -5.55675 | 5876 ft | 259 kts | 198° |
| 2026-04-29 20:49 | 37.52314 | -5.56322 | 5324 ft | 257 kts | 198° |
| 2026-04-29 20:49 | 37.50606 | -5.56956 | 4807 ft | 254 kts | 198° |
| 2026-04-29 20:49 | 37.48918 | -5.57585 | 4258 ft | 252 kts | 199° |
| 2026-04-29 20:49 | 37.47268 | -5.58200 | 3923 ft | 242 kts | 199° |
| 2026-04-29 20:50 | 37.45722 | -5.58771 | 3868 ft | 221 kts | 199° |
| 2026-04-29 20:50 | 37.44288 | -5.59301 | 3817 ft | 209 kts | 199° |
| 2026-04-29 20:50 | 37.43045 | -5.60083 | 3742 ft | 194 kts | 221° |
| 2026-04-29 20:50 | 37.42227 | -5.61336 | 3685 ft | 178 kts | 242° |
| 2026-04-29 20:51 | 37.41875 | -5.62758 | 3590 ft | 165 kts | 262° |
| 2026-04-29 20:51 | 37.41860 | -5.64133 | 3540 ft | 145 kts | 267° |
| 2026-04-29 20:51 | 37.41853 | -5.65354 | 3463 ft | 137 kts | 267° |
| 2026-04-29 20:51 | 37.41847 | -5.66548 | 3327 ft | 136 kts | 267° |
| 2026-04-29 20:52 | 37.41843 | -5.67712 | 3174 ft | 134 kts | 267° |
| 2026-04-29 20:52 | 37.41840 | -5.68892 | 3005 ft | 135 kts | 268° |
| 2026-04-29 20:52 | 37.41838 | -5.70067 | 2828 ft | 134 kts | 268° |
| 2026-04-29 20:52 | 37.41836 | -5.71236 | 2650 ft | 133 kts | 267° |
| 2026-04-29 20:53 | 37.41834 | -5.72397 | 2472 ft | 133 kts | 267° |
| 2026-04-29 20:53 | 37.41832 | -5.73556 | 2297 ft | 132 kts | 268° |
| 2026-04-29 20:53 | 37.41830 | -5.74714 | 2115 ft | 132 kts | 267° |
| 2026-04-29 20:53 | 37.41828 | -5.75873 | 1937 ft | 133 kts | 266° |
| 2026-04-29 20:54 | 37.41822 | -5.78193 | 1587 ft | 133 kts | 268° |
| 2026-04-29 20:54 | 37.41817 | -5.79357 | 1415 ft | 134 kts | 266° |
| 2026-04-29 20:54 | 37.41812 | -5.80520 | 1239 ft | 132 kts | 266° |
| 2026-04-29 20:55 | 37.41807 | -5.81672 | 1077 ft | 132 kts | 267° |
| 2026-04-29 20:55 | 37.41801 | -5.82824 | 925 ft | 132 kts | 267° |
| 2026-04-29 20:55 | 37.41794 | -5.83978 | 775 ft | 131 kts | 266° |
| 2026-04-29 20:55 | 37.41797 | -5.85116 | 534 ft | 133 kts | 267° |
| 2026-04-29 20:56 | 37.41801 | -5.86279 | 355 ft | 133 kts | 268° |
| 2026-04-29 20:56 | 37.41807 | -5.87438 | 175 ft | 133 kts | 269° |
| 2026-04-29 20:56 | 37.41785 | -5.88532 | 114 ft | 123 kts | 265° |
| 2026-04-29 20:56 | 37.41719 | -5.89766 | 597 ft | 148 kts | 263° |
| 2026-04-29 20:57 | 37.41677 | -5.91055 | 1478 ft | 147 kts | 266° |
| 2026-04-29 20:57 | 37.41650 | -5.92408 | 1799 ft | 164 kts | 266° |
| 2026-04-29 20:57 | 37.41616 | -5.93956 | 2049 ft | 189 kts | 267° |
| 2026-04-29 20:57 | 37.41577 | -5.95667 | 2682 ft | 198 kts | 267° |
| 2026-04-29 20:58 | 37.41537 | -5.97408 | 3546 ft | 202 kts | 267° |
| 2026-04-29 20:58 | 37.41495 | -5.99197 | 3903 ft | 205 kts | 267° |
| 2026-04-29 20:58 | 37.41677 | -6.00965 | 3991 ft | 206 kts | 290° |
| 2026-04-29 20:58 | 37.42493 | -6.02445 | 4008 ft | 210 kts | 317° |
| 2026-04-29 20:59 | 37.43792 | -6.03298 | 4011 ft | 216 kts | 344° |
| 2026-04-29 20:59 | 37.45300 | -6.03334 | 4008 ft | 220 kts | 4° |
| 2026-04-29 20:59 | 37.46819 | -6.03040 | 4013 ft | 221 kts | 8° |
| 2026-04-29 20:59 | 37.48322 | -6.02613 | 4011 ft | 222 kts | 12° |
| 2026-04-29 21:00 | 37.49806 | -6.02050 | 4012 ft | 222 kts | 16° |
| 2026-04-29 21:00 | 37.51253 | -6.01354 | 4013 ft | 223 kts | 21° |
| 2026-04-29 21:00 | 37.52658 | -6.00524 | 4009 ft | 224 kts | 25° |
| 2026-04-29 21:00 | 37.54018 | -5.99568 | 4006 ft | 224 kts | 29° |
| 2026-04-29 21:01 | 37.55328 | -5.98493 | 4010 ft | 225 kts | 33° |
| 2026-04-29 21:01 | 37.56559 | -5.97316 | 4007 ft | 225 kts | 38° |
| 2026-04-29 21:01 | 37.57738 | -5.96006 | 4012 ft | 226 kts | 43° |
| 2026-04-29 21:01 | 37.58837 | -5.94590 | 4015 ft | 227 kts | 47° |
| 2026-04-29 21:02 | 37.59854 | -5.93073 | 4007 ft | 227 kts | 51° |
| 2026-04-29 21:02 | 37.60777 | -5.91463 | 4008 ft | 227 kts | 56° |
| 2026-04-29 21:02 | 37.61610 | -5.89770 | 4010 ft | 227 kts | 60° |
| 2026-04-29 21:02 | 37.62343 | -5.88011 | 4011 ft | 227 kts | 64° |
| 2026-04-29 21:03 | 37.62974 | -5.86186 | 4010 ft | 227 kts | 69° |
| 2026-04-29 21:03 | 37.63497 | -5.84300 | 4007 ft | 228 kts | 73° |
| 2026-04-29 21:03 | 37.63904 | -5.82375 | 4011 ft | 227 kts | 78° |
| 2026-04-29 21:03 | 37.64202 | -5.80415 | 4006 ft | 227 kts | 82° |
| 2026-04-29 21:04 | 37.64388 | -5.78438 | 4007 ft | 227 kts | 86° |
| 2026-04-29 21:04 | 37.64274 | -5.76476 | 4008 ft | 224 kts | 109° |
| 2026-04-29 21:04 | 37.63569 | -5.74752 | 3933 ft | 219 kts | 133° |
| 2026-04-29 21:04 | 37.62432 | -5.73550 | 3862 ft | 215 kts | 155° |
| 2026-04-29 21:05 | 37.61099 | -5.72698 | 3820 ft | 215 kts | 156° |
| 2026-04-29 21:05 | 37.59765 | -5.71837 | 3768 ft | 215 kts | 156° |
| 2026-04-29 21:05 | 37.58437 | -5.70971 | 3719 ft | 215 kts | 156° |
| 2026-04-29 21:05 | 37.57106 | -5.70100 | 3664 ft | 216 kts | 156° |
| 2026-04-29 21:06 | 37.55771 | -5.69229 | 3615 ft | 215 kts | 156° |
| 2026-04-29 21:06 | 37.54442 | -5.68365 | 3566 ft | 215 kts | 156° |
| 2026-04-29 21:06 | 37.53117 | -5.67505 | 3512 ft | 214 kts | 156° |
| 2026-04-29 21:06 | 37.51794 | -5.66649 | 3468 ft | 214 kts | 156° |
| 2026-04-29 21:07 | 37.50471 | -5.65792 | 3413 ft | 214 kts | 156° |
| 2026-04-29 21:07 | 37.49147 | -5.64933 | 3372 ft | 215 kts | 156° |
| 2026-04-29 21:07 | 37.47821 | -5.64073 | 3313 ft | 214 kts | 156° |
| 2026-04-29 21:07 | 37.46496 | -5.63214 | 3256 ft | 213 kts | 157° |
| 2026-04-29 21:08 | 37.45120 | -5.62730 | 3113 ft | 200 kts | 182° |
| 2026-04-29 21:08 | 37.43806 | -5.63013 | 3010 ft | 184 kts | 205° |
| 2026-04-29 21:08 | 37.42785 | -5.63851 | 2880 ft | 169 kts | 226° |
| 2026-04-29 21:08 | 37.42134 | -5.65011 | 2753 ft | 158 kts | 245° |
| 2026-04-29 21:09 | 37.41860 | -5.66261 | 2649 ft | 142 kts | 262° |
| 2026-04-29 21:09 | 37.41841 | -5.67473 | 2538 ft | 136 kts | 268° |
| 2026-04-29 21:09 | 37.41840 | -5.68633 | 2408 ft | 133 kts | 268° |
| 2026-04-29 21:09 | 37.41838 | -5.69797 | 2286 ft | 133 kts | 268° |
| 2026-04-29 21:10 | 37.41836 | -5.70954 | 2159 ft | 132 kts | 267° |
| 2026-04-29 21:10 | 37.41834 | -5.72107 | 2033 ft | 132 kts | 266° |
| 2026-04-29 21:10 | 37.41832 | -5.73253 | 1910 ft | 130 kts | 266° |
| 2026-04-29 21:10 | 37.41830 | -5.74392 | 1785 ft | 130 kts | 266° |
| 2026-04-29 21:11 | 37.41828 | -5.75533 | 1664 ft | 130 kts | 267° |
| 2026-04-29 21:11 | 37.41826 | -5.76678 | 1595 ft | 131 kts | 266° |
| 2026-04-29 21:11 | 37.41824 | -5.77824 | 1549 ft | 131 kts | 268° |
| 2026-04-29 21:11 | 37.41821 | -5.78977 | 1432 ft | 133 kts | 268° |
| 2026-04-29 21:12 | 37.41819 | -5.80140 | 1272 ft | 133 kts | 266° |
| 2026-04-29 21:12 | 37.41816 | -5.81295 | 1113 ft | 131 kts | 266° |
| 2026-04-29 21:12 | 37.41814 | -5.82443 | 941 ft | 131 kts | 268° |
| 2026-04-29 21:12 | 37.41812 | -5.83592 | 766 ft | 132 kts | 268° |
| 2026-04-29 21:13 | 37.41810 | -5.84733 | 586 ft | 130 kts | 267° |
| 2026-04-29 21:13 | 37.41805 | -5.85874 | 412 ft | 131 kts | 268° |
| 2026-04-29 21:13 | 37.41802 | -5.87018 | 244 ft | 131 kts | 268° |
| 2026-04-29 21:13 | 37.41802 | -5.88148 | 111 ft | 121 kts | 269° |
| 2026-04-29 21:14 | 37.41794 | -5.89025 | 102 ft | 76 kts | 270° |
| 2026-04-29 21:14 | 37.41793 | -5.89441 | 100 ft | 28 kts | 270° |
| 2026-04-29 21:14 | 37.41795 | -5.89650 | 98 ft | 20 kts | 271° |
| 2026-04-29 21:14 | 37.41831 | -5.89786 | 98 ft | 18 kts | 317° |
| 2026-04-29 21:15 | 37.41917 | -5.89839 | 97 ft | 8 kts | 337° |
| 2026-04-29 21:15 | 37.41942 | -5.89852 | 96 ft | 4 kts | 338° |
| 2026-04-29 21:15 | 37.41983 | -5.89873 | 97 ft | 8 kts | 337° |
| 2026-04-29 21:15 | 37.42044 | -5.89905 | 95 ft | 11 kts | 337° |
| 2026-04-29 21:16 | 37.42106 | -5.89931 | 94 ft | 10 kts | 358° |
| 2026-04-29 21:16 | 37.42152 | -5.89897 | 94 ft | 6 kts | 41° |
| 2026-04-29 21:16 | 37.42191 | -5.89850 | 94 ft | 10 kts | 45° |
| 2026-04-29 21:16 | 37.42225 | -5.89825 | 94 ft | 5 kts | 355° |
| 2026-04-29 21:17 | 37.42257 | -5.89856 | 94 ft | 6 kts | 316° |
| 2026-04-29 21:17 | 37.42277 | -5.89881 | 96 ft | 0 kts | 314° |
| 2026-04-29 21:17 | 37.42280 | -5.89886 | 94 ft | 0 kts | 314° |